Kezdőlap
METAR-TAF:

METAR-TAF

Repülőterek :

Pine Ridge, Dél-Dakota, Amerikai Egyesült Államok

földrajzi szélesség: 43-01-32N, földrajzi hosszúság: 102-31-23W, magasság: 1015 m

Jelenlegi meteorológiai megfigyelések

A jelentés 58 perccel ezelõtt készült, 02:52 UTC
Keleti szél 8 kt
Hőmérséklet 23°C
Páratartalom 61%
Légköri nyomás 1009 hPa
Látótávolság: 16.1 km
Derült ég

METAR: KIEN 130252Z AUTO 08008KT 10SM CLR 23/15 A2980 RMK AO2 SLP057 T02280150 53002

Idő: 21:50 (03:50 UTC)


TAF: hiányzik

Meteorológiai megfigyelések és előrejelzések több, mint 4000 repülőtéren (METAR és TAF jelentéseket).

A térképen piros és sárga pontok jelzik az elérhető meteorológiai állomásokat.

Mozgassa az egeret a pont fölött, hogy megjelenjen az állomás neve.

Azután kattintson az időjárási megfigyelések és előrejelzések megtekintéséhez.

A térkép megváltoztatása: kattintson a fekete keresztel jelölt zöld gombra ráközelítéshez, a vonallal jelölt zöld gombra távolításhoz, vagy a zöld nyilakra a szomszédos térképek eléréséhez.


METAR-TAF: